Gloversville, New York
Current Conditions -  °F | °C
As of 12:35 AM on Sunday 26 Oct 2014 (Local Time) from KNY0 Reporting Station
Clear Clear  
Wind Chill: 45°   Ceiling: Unl
Heat Index: 47°   Visibility: 5mi
Dew Point: 45°   Wind: 5mph
Humidity: 93%   Direction: 250°WSW
Pressure: 29.51"   Gusts: NA
Location:  43.06°N, 74.34°W
Report Text: KNY0 260435Z AUTO 25004KT 5SM CLR 08/07 A2951 RMK AO2 T00820072
Loading
Personal Weather Stations






























Interactive Weather Map
Tropical Storm Tracking
New forecast layout! Learn more

10-Day Weather Forecast

Advertisements
Track Severe Weather on mobile